sensor_id;sensor_type;location;lat;lon;timestamp;P1;durP1;ratioP1;P2;durP2;ratioP2
58752;SDS011;44525;46.052;13.610;2023-11-21T00:02:10;24.77;;;16.13;;
58752;SDS011;44525;46.052;13.610;2023-11-21T00:04:35;23.67;;;17.03;;
58752;SDS011;44525;46.052;13.610;2023-11-21T00:07:01;26.50;;;16.13;;
58752;SDS011;44525;46.052;13.610;2023-11-21T00:09:26;24.03;;;15.73;;
58752;SDS011;44525;46.052;13.610;2023-11-21T00:11:51;27.52;;;16.55;;
58752;SDS011;44525;46.052;13.610;2023-11-21T00:14:16;28.53;;;17.60;;
58752;SDS011;44525;46.052;13.610;2023-11-21T00:16:41;24.70;;;15.75;;
58752;SDS011;44525;46.052;13.610;2023-11-21T00:19:07;20.57;;;15.47;;
58752;SDS011;44525;46.052;13.610;2023-11-21T00:21:32;23.85;;;16.20;;
58752;SDS011;44525;46.052;13.610;2023-11-21T00:23:57;20.70;;;14.40;;
58752;SDS011;44525;46.052;13.610;2023-11-21T00:26:23;21.55;;;14.90;;
58752;SDS011;44525;46.052;13.610;2023-11-21T00:28:49;20.13;;;14.95;;
58752;SDS011;44525;46.052;13.610;2023-11-21T00:31:14;19.95;;;15.00;;
58752;SDS011;44525;46.052;13.610;2023-11-21T00:33:39;23.10;;;14.75;;
58752;SDS011;44525;46.052;13.610;2023-11-21T00:36:05;22.00;;;14.03;;
58752;SDS011;44525;46.052;13.610;2023-11-21T00:38:34;21.40;;;14.45;;
58752;SDS011;44525;46.052;13.610;2023-11-21T00:40:59;21.50;;;14.88;;
58752;SDS011;44525;46.052;13.610;2023-11-21T00:43:25;19.40;;;14.20;;
58752;SDS011;44525;46.052;13.610;2023-11-21T00:45:50;22.83;;;14.00;;
58752;SDS011;44525;46.052;13.610;2023-11-21T00:48:16;20.73;;;13.43;;
58752;SDS011;44525;46.052;13.610;2023-11-21T00:50:41;18.20;;;13.18;;
58752;SDS011;44525;46.052;13.610;2023-11-21T00:53:06;21.13;;;13.32;;
58752;SDS011;44525;46.052;13.610;2023-11-21T00:55:35;20.00;;;14.27;;
58752;SDS011;44525;46.052;13.610;2023-11-21T00:58:01;17.95;;;13.30;;
58752;SDS011;44525;46.052;13.610;2023-11-21T01:00:29;21.27;;;14.10;;
58752;SDS011;44525;46.052;13.610;2023-11-21T01:02:54;18.63;;;12.60;;
58752;SDS011;44525;46.052;13.610;2023-11-21T01:05:20;19.45;;;13.50;;
58752;SDS011;44525;46.052;13.610;2023-11-21T01:07:45;21.47;;;13.90;;
58752;SDS011;44525;46.052;13.610;2023-11-21T01:10:10;19.50;;;14.43;;
58752;SDS011;44525;46.052;13.610;2023-11-21T01:12:36;20.10;;;14.30;;
58752;SDS011;44525;46.052;13.610;2023-11-21T01:15:02;22.73;;;14.88;;
58752;SDS011;44525;46.052;13.610;2023-11-21T01:17:28;19.83;;;13.48;;
58752;SDS011;44525;46.052;13.610;2023-11-21T01:19:53;22.00;;;15.43;;
58752;SDS011;44525;46.052;13.610;2023-11-21T01:22:18;19.70;;;14.60;;
58752;SDS011;44525;46.052;13.610;2023-11-21T01:24:49;22.75;;;14.15;;
58752;SDS011;44525;46.052;13.610;2023-11-21T01:27:14;22.10;;;14.93;;
58752;SDS011;44525;46.052;13.610;2023-11-21T01:29:39;18.23;;;13.85;;
58752;SDS011;44525;46.052;13.610;2023-11-21T01:32:05;18.27;;;12.73;;
58752;SDS011;44525;46.052;13.610;2023-11-21T01:34:32;18.98;;;12.77;;
58752;SDS011;44525;46.052;13.610;2023-11-21T01:36:58;19.13;;;14.30;;
58752;SDS011;44525;46.052;13.610;2023-11-21T01:39:23;23.52;;;13.25;;
58752;SDS011;44525;46.052;13.610;2023-11-21T01:41:52;21.58;;;13.27;;
58752;SDS011;44525;46.052;13.610;2023-11-21T01:44:17;22.08;;;14.30;;
58752;SDS011;44525;46.052;13.610;2023-11-21T01:46:44;17.10;;;12.40;;
58752;SDS011;44525;46.052;13.610;2023-11-21T01:49:09;21.05;;;13.30;;
58752;SDS011;44525;46.052;13.610;2023-11-21T01:51:38;20.42;;;13.38;;
58752;SDS011;44525;46.052;13.610;2023-11-21T01:54:03;18.85;;;13.02;;
58752;SDS011;44525;46.052;13.610;2023-11-21T01:56:30;22.13;;;13.60;;
58752;SDS011;44525;46.052;13.610;2023-11-21T01:58:56;20.85;;;13.60;;
58752;SDS011;44525;46.052;13.610;2023-11-21T02:01:21;20.80;;;14.38;;
58752;SDS011;44525;46.052;13.610;2023-11-21T02:03:47;21.63;;;13.80;;
58752;SDS011;44525;46.052;13.610;2023-11-21T02:06:12;19.02;;;13.55;;
58752;SDS011;44525;46.052;13.610;2023-11-21T02:08:38;25.48;;;13.10;;
58752;SDS011;44525;46.052;13.610;2023-11-21T02:11:04;18.27;;;13.38;;
58752;SDS011;44525;46.052;13.610;2023-11-21T02:13:30;17.23;;;12.85;;
58752;SDS011;44525;46.052;13.610;2023-11-21T02:15:56;18.10;;;12.73;;
58752;SDS011;44525;46.052;13.610;2023-11-21T02:18:21;23.20;;;13.60;;
58752;SDS011;44525;46.052;13.610;2023-11-21T02:20:47;18.17;;;13.07;;
58752;SDS011;44525;46.052;13.610;2023-11-21T02:23:12;20.73;;;12.88;;
58752;SDS011;44525;46.052;13.610;2023-11-21T02:25:38;17.73;;;12.30;;
58752;SDS011;44525;46.052;13.610;2023-11-21T02:28:03;19.98;;;12.55;;
58752;SDS011;44525;46.052;13.610;2023-11-21T02:30:29;21.33;;;13.13;;
58752;SDS011;44525;46.052;13.610;2023-11-21T02:32:55;18.95;;;13.73;;
58752;SDS011;44525;46.052;13.610;2023-11-21T02:35:23;17.77;;;13.25;;
58752;SDS011;44525;46.052;13.610;2023-11-21T02:37:50;19.08;;;13.43;;
58752;SDS011;44525;46.052;13.610;2023-11-21T02:40:16;21.65;;;13.77;;
58752;SDS011;44525;46.052;13.610;2023-11-21T02:42:46;16.77;;;12.48;;
58752;SDS011;44525;46.052;13.610;2023-11-21T02:45:12;18.95;;;12.52;;
58752;SDS011;44525;46.052;13.610;2023-11-21T02:47:38;16.77;;;12.32;;
58752;SDS011;44525;46.052;13.610;2023-11-21T02:50:03;17.52;;;11.68;;
58752;SDS011;44525;46.052;13.610;2023-11-21T02:52:29;14.80;;;11.07;;
58752;SDS011;44525;46.052;13.610;2023-11-21T02:54:54;17.50;;;12.27;;
58752;SDS011;44525;46.052;13.610;2023-11-21T02:57:19;18.63;;;13.60;;
58752;SDS011;44525;46.052;13.610;2023-11-21T02:59:45;18.07;;;12.93;;
58752;SDS011;44525;46.052;13.610;2023-11-21T03:02:10;16.03;;;11.40;;
58752;SDS011;44525;46.052;13.610;2023-11-21T03:04:35;20.17;;;13.10;;
58752;SDS011;44525;46.052;13.610;2023-11-21T03:07:00;18.73;;;12.63;;
58752;SDS011;44525;46.052;13.610;2023-11-21T03:09:26;20.63;;;13.25;;
58752;SDS011;44525;46.052;13.610;2023-11-21T03:11:52;17.33;;;12.43;;
58752;SDS011;44525;46.052;13.610;2023-11-21T03:14:17;19.70;;;12.35;;
58752;SDS011;44525;46.052;13.610;2023-11-21T03:16:43;18.03;;;12.03;;
58752;SDS011;44525;46.052;13.610;2023-11-21T03:19:10;20.27;;;13.88;;
58752;SDS011;44525;46.052;13.610;2023-11-21T03:21:35;18.10;;;12.35;;
58752;SDS011;44525;46.052;13.610;2023-11-21T03:24:01;18.40;;;12.82;;
58752;SDS011;44525;46.052;13.610;2023-11-21T03:26:26;19.23;;;13.20;;
58752;SDS011;44525;46.052;13.610;2023-11-21T03:28:51;19.20;;;13.43;;
58752;SDS011;44525;46.052;13.610;2023-11-21T03:31:18;16.83;;;11.77;;
58752;SDS011;44525;46.052;13.610;2023-11-21T03:33:44;16.05;;;12.38;;
58752;SDS011;44525;46.052;13.610;2023-11-21T03:36:10;16.65;;;11.32;;
58752;SDS011;44525;46.052;13.610;2023-11-21T03:38:36;18.27;;;11.40;;
58752;SDS011;44525;46.052;13.610;2023-11-21T03:41:01;16.60;;;11.07;;
58752;SDS011;44525;46.052;13.610;2023-11-21T03:43:27;15.50;;;11.18;;
58752;SDS011;44525;46.052;13.610;2023-11-21T03:45:52;18.27;;;11.65;;
58752;SDS011;44525;46.052;13.610;2023-11-21T03:48:17;16.92;;;11.75;;
58752;SDS011;44525;46.052;13.610;2023-11-21T03:50:43;15.97;;;11.07;;
58752;SDS011;44525;46.052;13.610;2023-11-21T03:53:08;17.47;;;11.53;;
58752;SDS011;44525;46.052;13.610;2023-11-21T03:55:33;17.07;;;10.60;;
58752;SDS011;44525;46.052;13.610;2023-11-21T03:57:58;17.85;;;11.50;;
58752;SDS011;44525;46.052;13.610;2023-11-21T04:00:24;16.40;;;10.77;;
58752;SDS011;44525;46.052;13.610;2023-11-21T04:02:49;18.33;;;13.40;;
58752;SDS011;44525;46.052;13.610;2023-11-21T04:05:19;40.22;;;28.88;;
58752;SDS011;44525;46.052;13.610;2023-11-21T04:07:44;23.10;;;15.68;;
58752;SDS011;44525;46.052;13.610;2023-11-21T04:10:10;19.60;;;14.77;;
58752;SDS011;44525;46.052;13.610;2023-11-21T04:12:37;25.98;;;18.10;;
58752;SDS011;44525;46.052;13.610;2023-11-21T04:15:03;25.30;;;16.57;;
58752;SDS011;44525;46.052;13.610;2023-11-21T04:17:28;22.45;;;16.52;;
58752;SDS011;44525;46.052;13.610;2023-11-21T04:19:54;21.73;;;15.38;;
58752;SDS011;44525;46.052;13.610;2023-11-21T04:22:19;19.30;;;14.55;;
58752;SDS011;44525;46.052;13.610;2023-11-21T04:24:44;16.63;;;12.30;;
58752;SDS011;44525;46.052;13.610;2023-11-21T04:27:09;23.33;;;16.60;;
58752;SDS011;44525;46.052;13.610;2023-11-21T04:29:34;21.70;;;14.63;;
58752;SDS011;44525;46.052;13.610;2023-11-21T04:32:00;18.00;;;12.40;;
58752;SDS011;44525;46.052;13.610;2023-11-21T04:34:26;17.45;;;11.45;;
58752;SDS011;44525;46.052;13.610;2023-11-21T04:36:51;14.70;;;11.13;;
58752;SDS011;44525;46.052;13.610;2023-11-21T04:39:16;19.17;;;13.07;;
58752;SDS011;44525;46.052;13.610;2023-11-21T04:41:41;17.10;;;11.73;;
58752;SDS011;44525;46.052;13.610;2023-11-21T04:44:07;15.82;;;11.48;;
58752;SDS011;44525;46.052;13.610;2023-11-21T04:46:33;18.88;;;12.20;;
58752;SDS011;44525;46.052;13.610;2023-11-21T04:48:58;15.23;;;12.15;;
58752;SDS011;44525;46.052;13.610;2023-11-21T04:51:23;15.32;;;11.45;;
58752;SDS011;44525;46.052;13.610;2023-11-21T04:53:49;16.88;;;11.80;;
58752;SDS011;44525;46.052;13.610;2023-11-21T04:56:14;16.00;;;11.27;;
58752;SDS011;44525;46.052;13.610;2023-11-21T04:58:41;16.67;;;12.00;;
58752;SDS011;44525;46.052;13.610;2023-11-21T05:01:07;15.13;;;10.57;;
58752;SDS011;44525;46.052;13.610;2023-11-21T05:03:32;16.75;;;11.10;;
58752;SDS011;44525;46.052;13.610;2023-11-21T05:05:57;17.98;;;11.32;;
58752;SDS011;44525;46.052;13.610;2023-11-21T05:08:22;16.45;;;11.20;;
58752;SDS011;44525;46.052;13.610;2023-11-21T05:10:48;15.57;;;11.13;;
58752;SDS011;44525;46.052;13.610;2023-11-21T05:13:14;15.10;;;10.73;;
58752;SDS011;44525;46.052;13.610;2023-11-21T05:15:42;16.30;;;11.32;;
58752;SDS011;44525;46.052;13.610;2023-11-21T05:18:07;16.30;;;11.65;;
58752;SDS011;44525;46.052;13.610;2023-11-21T05:20:33;19.83;;;12.17;;
58752;SDS011;44525;46.052;13.610;2023-11-21T05:22:58;16.55;;;10.57;;
58752;SDS011;44525;46.052;13.610;2023-11-21T05:25:23;15.77;;;11.30;;
58752;SDS011;44525;46.052;13.610;2023-11-21T05:27:49;16.10;;;10.68;;
58752;SDS011;44525;46.052;13.610;2023-11-21T05:30:14;18.50;;;12.75;;
58752;SDS011;44525;46.052;13.610;2023-11-21T05:32:40;21.42;;;13.55;;
58752;SDS011;44525;46.052;13.610;2023-11-21T05:35:07;16.52;;;11.50;;
58752;SDS011;44525;46.052;13.610;2023-11-21T05:37:37;17.52;;;12.00;;
58752;SDS011;44525;46.052;13.610;2023-11-21T05:40:04;29.80;;;16.92;;
58752;SDS011;44525;46.052;13.610;2023-11-21T05:42:30;22.13;;;14.80;;
58752;SDS011;44525;46.052;13.610;2023-11-21T05:44:56;20.00;;;13.82;;
58752;SDS011;44525;46.052;13.610;2023-11-21T05:47:24;17.45;;;11.13;;
58752;SDS011;44525;46.052;13.610;2023-11-21T05:49:51;17.50;;;10.75;;
58752;SDS011;44525;46.052;13.610;2023-11-21T05:52:17;16.50;;;8.23;;
58752;SDS011;44525;46.052;13.610;2023-11-21T05:54:42;8.70;;;5.53;;
58752;SDS011;44525;46.052;13.610;2023-11-21T05:57:07;10.20;;;5.60;;
58752;SDS011;44525;46.052;13.610;2023-11-21T05:59:33;10.85;;;6.03;;
58752;SDS011;44525;46.052;13.610;2023-11-21T06:01:59;16.70;;;9.95;;
58752;SDS011;44525;46.052;13.610;2023-11-21T06:04:24;15.63;;;9.40;;
58752;SDS011;44525;46.052;13.610;2023-11-21T06:06:50;14.20;;;9.65;;
58752;SDS011;44525;46.052;13.610;2023-11-21T06:09:15;15.45;;;9.85;;
58752;SDS011;44525;46.052;13.610;2023-11-21T06:11:41;11.63;;;8.98;;
58752;SDS011;44525;46.052;13.610;2023-11-21T06:14:06;18.13;;;10.30;;
58752;SDS011;44525;46.052;13.610;2023-11-21T06:16:33;19.95;;;10.68;;
58752;SDS011;44525;46.052;13.610;2023-11-21T06:18:58;19.73;;;11.27;;
58752;SDS011;44525;46.052;13.610;2023-11-21T06:21:23;17.83;;;10.27;;
58752;SDS011;44525;46.052;13.610;2023-11-21T06:23:49;15.48;;;9.88;;
58752;SDS011;44525;46.052;13.610;2023-11-21T06:26:14;12.40;;;8.75;;
58752;SDS011;44525;46.052;13.610;2023-11-21T06:28:39;14.83;;;8.30;;
58752;SDS011;44525;46.052;13.610;2023-11-21T06:31:04;11.30;;;7.50;;
58752;SDS011;44525;46.052;13.610;2023-11-21T06:33:33;10.32;;;7.57;;
58752;SDS011;44525;46.052;13.610;2023-11-21T06:35:58;16.33;;;8.93;;
58752;SDS011;44525;46.052;13.610;2023-11-21T06:38:24;18.77;;;11.20;;
58752;SDS011;44525;46.052;13.610;2023-11-21T06:40:49;18.35;;;10.55;;
58752;SDS011;44525;46.052;13.610;2023-11-21T06:43:14;12.80;;;7.55;;
58752;SDS011;44525;46.052;13.610;2023-11-21T06:45:40;12.95;;;7.88;;
58752;SDS011;44525;46.052;13.610;2023-11-21T06:48:05;8.20;;;5.47;;
58752;SDS011;44525;46.052;13.610;2023-11-21T06:50:30;9.10;;;6.17;;
58752;SDS011;44525;46.052;13.610;2023-11-21T06:52:56;8.30;;;6.47;;
58752;SDS011;44525;46.052;13.610;2023-11-21T06:55:21;8.85;;;5.30;;
58752;SDS011;44525;46.052;13.610;2023-11-21T06:57:46;7.40;;;4.87;;
58752;SDS011;44525;46.052;13.610;2023-11-21T07:00:12;9.68;;;4.68;;
58752;SDS011;44525;46.052;13.610;2023-11-21T07:02:38;6.93;;;4.00;;
58752;SDS011;44525;46.052;13.610;2023-11-21T07:05:03;5.68;;;3.72;;
58752;SDS011;44525;46.052;13.610;2023-11-21T07:07:29;6.97;;;4.13;;
58752;SDS011;44525;46.052;13.610;2023-11-21T07:09:54;7.57;;;4.05;;
58752;SDS011;44525;46.052;13.610;2023-11-21T07:12:19;7.73;;;3.70;;
58752;SDS011;44525;46.052;13.610;2023-11-21T07:14:44;7.45;;;3.78;;
58752;SDS011;44525;46.052;13.610;2023-11-21T07:17:10;6.38;;;3.97;;
58752;SDS011;44525;46.052;13.610;2023-11-21T07:19:37;6.28;;;3.90;;
58752;SDS011;44525;46.052;13.610;2023-11-21T07:22:02;5.45;;;3.60;;
58752;SDS011;44525;46.052;13.610;2023-11-21T07:24:27;7.22;;;3.80;;
58752;SDS011;44525;46.052;13.610;2023-11-21T07:26:52;5.23;;;3.30;;
58752;SDS011;44525;46.052;13.610;2023-11-21T07:29:21;5.22;;;3.38;;
58752;SDS011;44525;46.052;13.610;2023-11-21T07:31:46;5.43;;;3.22;;
58752;SDS011;44525;46.052;13.610;2023-11-21T07:34:11;6.43;;;3.63;;
58752;SDS011;44525;46.052;13.610;2023-11-21T07:36:37;5.63;;;3.33;;
58752;SDS011;44525;46.052;13.610;2023-11-21T07:39:02;5.80;;;3.40;;
58752;SDS011;44525;46.052;13.610;2023-11-21T07:41:27;6.35;;;3.30;;
58752;SDS011;44525;46.052;13.610;2023-11-21T07:43:54;5.22;;;3.13;;
58752;SDS011;44525;46.052;13.610;2023-11-21T07:46:20;4.32;;;2.80;;
58752;SDS011;44525;46.052;13.610;2023-11-21T07:48:47;5.30;;;3.13;;
58752;SDS011;44525;46.052;13.610;2023-11-21T07:51:12;3.85;;;2.67;;
58752;SDS011;44525;46.052;13.610;2023-11-21T07:53:38;4.38;;;2.97;;
58752;SDS011;44525;46.052;13.610;2023-11-21T07:56:04;7.33;;;3.57;;
58752;SDS011;44525;46.052;13.610;2023-11-21T07:58:29;6.93;;;4.47;;
58752;SDS011;44525;46.052;13.610;2023-11-21T08:00:55;7.28;;;4.45;;
58752;SDS011;44525;46.052;13.610;2023-11-21T08:03:21;5.78;;;3.92;;
58752;SDS011;44525;46.052;13.610;2023-11-21T08:05:46;7.00;;;3.80;;
58752;SDS011;44525;46.052;13.610;2023-11-21T08:08:11;8.48;;;3.72;;
58752;SDS011;44525;46.052;13.610;2023-11-21T08:10:37;7.87;;;4.03;;
58752;SDS011;44525;46.052;13.610;2023-11-21T08:13:02;5.63;;;3.40;;
58752;SDS011;44525;46.052;13.610;2023-11-21T08:15:28;5.20;;;3.13;;
58752;SDS011;44525;46.052;13.610;2023-11-21T08:17:54;7.03;;;3.30;;
58752;SDS011;44525;46.052;13.610;2023-11-21T08:20:19;4.60;;;3.03;;
58752;SDS011;44525;46.052;13.610;2023-11-21T08:22:44;4.75;;;3.40;;
58752;SDS011;44525;46.052;13.610;2023-11-21T08:25:10;7.70;;;3.03;;
58752;SDS011;44525;46.052;13.610;2023-11-21T08:27:35;4.68;;;2.85;;
58752;SDS011;44525;46.052;13.610;2023-11-21T08:30:02;5.63;;;2.90;;
58752;SDS011;44525;46.052;13.610;2023-11-21T08:32:28;5.22;;;3.40;;
58752;SDS011;44525;46.052;13.610;2023-11-21T08:34:55;7.80;;;3.75;;
58752;SDS011;44525;46.052;13.610;2023-11-21T08:37:20;5.75;;;3.13;;
58752;SDS011;44525;46.052;13.610;2023-11-21T08:39:47;5.93;;;3.33;;
58752;SDS011;44525;46.052;13.610;2023-11-21T08:42:13;5.95;;;3.10;;
58752;SDS011;44525;46.052;13.610;2023-11-21T08:44:38;6.78;;;3.50;;
58752;SDS011;44525;46.052;13.610;2023-11-21T08:47:04;5.00;;;3.45;;
58752;SDS011;44525;46.052;13.610;2023-11-21T08:49:30;5.70;;;3.20;;
58752;SDS011;44525;46.052;13.610;2023-11-21T08:51:55;5.47;;;3.00;;
58752;SDS011;44525;46.052;13.610;2023-11-21T08:54:20;6.17;;;2.70;;
58752;SDS011;44525;46.052;13.610;2023-11-21T08:56:46;4.15;;;2.72;;
58752;SDS011;44525;46.052;13.610;2023-11-21T08:59:11;5.57;;;3.05;;
58752;SDS011;44525;46.052;13.610;2023-11-21T09:01:40;4.40;;;2.80;;
58752;SDS011;44525;46.052;13.610;2023-11-21T09:04:05;4.28;;;2.72;;
58752;SDS011;44525;46.052;13.610;2023-11-21T09:06:31;2.40;;;2.07;;
58752;SDS011;44525;46.052;13.610;2023-11-21T09:08:56;4.10;;;2.45;;
58752;SDS011;44525;46.052;13.610;2023-11-21T09:11:21;4.90;;;2.50;;
58752;SDS011;44525;46.052;13.610;2023-11-21T09:13:46;4.73;;;3.03;;
58752;SDS011;44525;46.052;13.610;2023-11-21T09:16:12;3.25;;;2.22;;
58752;SDS011;44525;46.052;13.610;2023-11-21T09:18:37;5.10;;;2.63;;
58752;SDS011;44525;46.052;13.610;2023-11-21T09:21:03;3.83;;;2.70;;
58752;SDS011;44525;46.052;13.610;2023-11-21T09:23:29;4.40;;;2.72;;
58752;SDS011;44525;46.052;13.610;2023-11-21T09:25:54;3.47;;;2.35;;
58752;SDS011;44525;46.052;13.610;2023-11-21T09:28:22;5.50;;;3.30;;
58752;SDS011;44525;46.052;13.610;2023-11-21T09:30:47;4.57;;;2.67;;
58752;SDS011;44525;46.052;13.610;2023-11-21T09:33:14;4.68;;;2.53;;
58752;SDS011;44525;46.052;13.610;2023-11-21T09:35:40;4.00;;;2.50;;
58752;SDS011;44525;46.052;13.610;2023-11-21T09:38:05;4.07;;;3.10;;
58752;SDS011;44525;46.052;13.610;2023-11-21T09:40:36;5.22;;;3.33;;
58752;SDS011;44525;46.052;13.610;2023-11-21T09:43:04;4.55;;;3.17;;
58752;SDS011;44525;46.052;13.610;2023-11-21T09:45:34;5.65;;;3.42;;
58752;SDS011;44525;46.052;13.610;2023-11-21T09:48:00;4.88;;;2.92;;
58752;SDS011;44525;46.052;13.610;2023-11-21T09:50:25;5.32;;;3.25;;
58752;SDS011;44525;46.052;13.610;2023-11-21T09:55:17;4.93;;;3.20;;
58752;SDS011;44525;46.052;13.610;2023-11-21T09:57:47;5.40;;;3.42;;
58752;SDS011;44525;46.052;13.610;2023-11-21T10:00:13;3.88;;;2.72;;
58752;SDS011;44525;46.052;13.610;2023-11-21T10:02:42;6.30;;;2.90;;
58752;SDS011;44525;46.052;13.610;2023-11-21T10:05:08;4.95;;;3.00;;
58752;SDS011;44525;46.052;13.610;2023-11-21T10:07:36;3.90;;;2.65;;
58752;SDS011;44525;46.052;13.610;2023-11-21T10:10:02;5.35;;;3.25;;
58752;SDS011;44525;46.052;13.610;2023-11-21T10:12:28;5.45;;;3.10;;
58752;SDS011;44525;46.052;13.610;2023-11-21T10:14:53;3.42;;;2.45;;
58752;SDS011;44525;46.052;13.610;2023-11-21T10:17:20;6.03;;;3.30;;
58752;SDS011;44525;46.052;13.610;2023-11-21T10:19:47;4.40;;;2.80;;
58752;SDS011;44525;46.052;13.610;2023-11-21T10:22:13;4.57;;;3.00;;
58752;SDS011;44525;46.052;13.610;2023-11-21T10:24:39;3.50;;;2.50;;
58752;SDS011;44525;46.052;13.610;2023-11-21T10:27:05;6.05;;;3.53;;
58752;SDS011;44525;46.052;13.610;2023-11-21T10:29:30;3.20;;;2.43;;
58752;SDS011;44525;46.052;13.610;2023-11-21T10:31:55;3.90;;;2.70;;
58752;SDS011;44525;46.052;13.610;2023-11-21T10:34:23;5.50;;;3.13;;
58752;SDS011;44525;46.052;13.610;2023-11-21T10:36:49;3.70;;;2.65;;
58752;SDS011;44525;46.052;13.610;2023-11-21T10:39:17;3.95;;;2.75;;
58752;SDS011;44525;46.052;13.610;2023-11-21T10:41:43;4.78;;;2.80;;
58752;SDS011;44525;46.052;13.610;2023-11-21T10:44:10;4.65;;;3.00;;
58752;SDS011;44525;46.052;13.610;2023-11-21T10:46:36;3.88;;;2.50;;
58752;SDS011;44525;46.052;13.610;2023-11-21T10:49:01;5.57;;;2.90;;
58752;SDS011;44525;46.052;13.610;2023-11-21T10:51:27;4.15;;;2.80;;
58752;SDS011;44525;46.052;13.610;2023-11-21T10:53:53;4.38;;;2.50;;
58752;SDS011;44525;46.052;13.610;2023-11-21T10:56:19;4.40;;;2.70;;
58752;SDS011;44525;46.052;13.610;2023-11-21T10:58:47;4.50;;;2.60;;
58752;SDS011;44525;46.052;13.610;2023-11-21T11:01:13;4.63;;;2.60;;
58752;SDS011;44525;46.052;13.610;2023-11-21T11:03:41;5.57;;;2.95;;
58752;SDS011;44525;46.052;13.610;2023-11-21T11:06:07;4.55;;;2.65;;
58752;SDS011;44525;46.052;13.610;2023-11-21T11:08:36;4.60;;;2.65;;
58752;SDS011;44525;46.052;13.610;2023-11-21T11:11:02;4.53;;;2.80;;
58752;SDS011;44525;46.052;13.610;2023-11-21T11:13:28;5.45;;;2.50;;
58752;SDS011;44525;46.052;13.610;2023-11-21T11:16:01;5.25;;;2.50;;
58752;SDS011;44525;46.052;13.610;2023-11-21T11:18:30;3.63;;;2.30;;
58752;SDS011;44525;46.052;13.610;2023-11-21T11:21:01;8.15;;;4.80;;
58752;SDS011;44525;46.052;13.610;2023-11-21T11:28:52;5.63;;;2.88;;
58752;SDS011;44525;46.052;13.610;2023-11-21T11:36:44;4.93;;;2.97;;
58752;SDS011;44525;46.052;13.610;2023-11-21T11:39:31;6.07;;;3.47;;
58752;SDS011;44525;46.052;13.610;2023-11-21T11:41:57;3.60;;;2.70;;
58752;SDS011;44525;46.052;13.610;2023-11-21T11:47:18;5.00;;;3.55;;
58752;SDS011;44525;46.052;13.610;2023-11-21T11:54:59;5.00;;;3.10;;
58752;SDS011;44525;46.052;13.610;2023-11-21T11:57:24;5.47;;;3.25;;
58752;SDS011;44525;46.052;13.610;2023-11-21T12:00:09;5.53;;;3.72;;
58752;SDS011;44525;46.052;13.610;2023-11-21T12:02:40;4.38;;;2.80;;
58752;SDS011;44525;46.052;13.610;2023-11-21T12:05:13;5.35;;;3.40;;
58752;SDS011;44525;46.052;13.610;2023-11-21T12:08:00;5.32;;;3.45;;
58752;SDS011;44525;46.052;13.610;2023-11-21T12:10:25;4.80;;;3.28;;
58752;SDS011;44525;46.052;13.610;2023-11-21T12:13:00;3.65;;;2.50;;
58752;SDS011;44525;46.052;13.610;2023-11-21T12:15:26;4.53;;;2.80;;
58752;SDS011;44525;46.052;13.610;2023-11-21T12:17:54;4.53;;;2.80;;
58752;SDS011;44525;46.052;13.610;2023-11-21T12:20:20;3.95;;;2.50;;
58752;SDS011;44525;46.052;13.610;2023-11-21T12:22:45;3.67;;;2.60;;
58752;SDS011;44525;46.052;13.610;2023-11-21T12:25:14;4.38;;;2.78;;
58752;SDS011;44525;46.052;13.610;2023-11-21T12:27:41;5.65;;;2.97;;
58752;SDS011;44525;46.052;13.610;2023-11-21T12:30:07;5.85;;;3.10;;
58752;SDS011;44525;46.052;13.610;2023-11-21T12:32:38;4.22;;;2.70;;
58752;SDS011;44525;46.052;13.610;2023-11-21T12:35:03;3.60;;;2.50;;
58752;SDS011;44525;46.052;13.610;2023-11-21T12:37:31;3.17;;;2.30;;
58752;SDS011;44525;46.052;13.610;2023-11-21T12:39:56;3.25;;;2.35;;
58752;SDS011;44525;46.052;13.610;2023-11-21T12:42:23;3.22;;;2.45;;
58752;SDS011;44525;46.052;13.610;2023-11-21T12:44:48;4.35;;;2.70;;
58752;SDS011;44525;46.052;13.610;2023-11-21T12:47:16;3.33;;;2.47;;
58752;SDS011;44525;46.052;13.610;2023-11-21T12:49:41;4.43;;;2.70;;
58752;SDS011;44525;46.052;13.610;2023-11-21T12:52:09;6.13;;;3.13;;
58752;SDS011;44525;46.052;13.610;2023-11-21T12:54:34;4.47;;;2.88;;
58752;SDS011;44525;46.052;13.610;2023-11-21T12:57:00;4.35;;;2.80;;
58752;SDS011;44525;46.052;13.610;2023-11-21T12:59:26;3.72;;;2.60;;
58752;SDS011;44525;46.052;13.610;2023-11-21T13:01:53;3.80;;;2.60;;
58752;SDS011;44525;46.052;13.610;2023-11-21T13:04:28;5.30;;;3.35;;
58752;SDS011;44525;46.052;13.610;2023-11-21T13:06:54;4.55;;;2.88;;
58752;SDS011;44525;46.052;13.610;2023-11-21T13:09:21;4.68;;;2.85;;
58752;SDS011;44525;46.052;13.610;2023-11-21T13:11:46;4.28;;;2.80;;
58752;SDS011;44525;46.052;13.610;2023-11-21T13:14:11;4.38;;;2.83;;
58752;SDS011;44525;46.052;13.610;2023-11-21T13:16:37;4.70;;;3.22;;
58752;SDS011;44525;46.052;13.610;2023-11-21T13:19:04;5.30;;;3.10;;
58752;SDS011;44525;46.052;13.610;2023-11-21T13:21:29;4.93;;;2.95;;
58752;SDS011;44525;46.052;13.610;2023-11-21T13:23:54;5.38;;;2.72;;
58752;SDS011;44525;46.052;13.610;2023-11-21T13:26:21;5.55;;;3.10;;
58752;SDS011;44525;46.052;13.610;2023-11-21T13:28:48;4.97;;;3.15;;
58752;SDS011;44525;46.052;13.610;2023-11-21T13:31:13;6.03;;;3.60;;
58752;SDS011;44525;46.052;13.610;2023-11-21T13:33:51;5.45;;;3.60;;
58752;SDS011;44525;46.052;13.610;2023-11-21T13:36:23;6.68;;;3.92;;
58752;SDS011;44525;46.052;13.610;2023-11-21T13:38:49;8.80;;;3.60;;
58752;SDS011;44525;46.052;13.610;2023-11-21T13:41:15;5.72;;;3.65;;
58752;SDS011;44525;46.052;13.610;2023-11-21T13:43:40;5.50;;;3.60;;
58752;SDS011;44525;46.052;13.610;2023-11-21T13:46:09;7.88;;;3.97;;
58752;SDS011;44525;46.052;13.610;2023-11-21T13:48:41;5.60;;;3.53;;
58752;SDS011;44525;46.052;13.610;2023-11-21T13:51:15;5.50;;;3.10;;
58752;SDS011;44525;46.052;13.610;2023-11-21T13:53:48;6.22;;;3.67;;
58752;SDS011;44525;46.052;13.610;2023-11-21T13:56:15;8.18;;;5.10;;
58752;SDS011;44525;46.052;13.610;2023-11-21T13:58:44;6.00;;;4.13;;
58752;SDS011;44525;46.052;13.610;2023-11-21T14:01:12;5.57;;;3.78;;
58752;SDS011;44525;46.052;13.610;2023-11-21T14:04:09;8.05;;;4.50;;
58752;SDS011;44525;46.052;13.610;2023-11-21T14:06:42;9.07;;;6.10;;
58752;SDS011;44525;46.052;13.610;2023-11-21T14:09:14;13.93;;;8.18;;
58752;SDS011;44525;46.052;13.610;2023-11-21T14:11:47;4.22;;;2.90;;
58752;SDS011;44525;46.052;13.610;2023-11-21T14:14:13;12.77;;;7.55;;
58752;SDS011;44525;46.052;13.610;2023-11-21T14:16:39;5.82;;;3.70;;
58752;SDS011;44525;46.052;13.610;2023-11-21T14:19:04;4.90;;;3.20;;
58752;SDS011;44525;46.052;13.610;2023-11-21T14:21:40;5.68;;;4.13;;
58752;SDS011;44525;46.052;13.610;2023-11-21T14:24:08;5.70;;;3.20;;
58752;SDS011;44525;46.052;13.610;2023-11-21T14:26:34;8.23;;;5.18;;
58752;SDS011;44525;46.052;13.610;2023-11-21T14:29:00;5.72;;;3.58;;
58752;SDS011;44525;46.052;13.610;2023-11-21T14:31:25;6.87;;;4.07;;
58752;SDS011;44525;46.052;13.610;2023-11-21T14:33:51;8.18;;;3.83;;
58752;SDS011;44525;46.052;13.610;2023-11-21T14:36:16;6.03;;;3.28;;
58752;SDS011;44525;46.052;13.610;2023-11-21T14:38:42;6.45;;;3.80;;
58752;SDS011;44525;46.052;13.610;2023-11-21T14:41:07;6.18;;;4.00;;